KTNU/TNU METAR and TAF weather

Enter ICAO airport designator
Station Type Date Time Source
KTNU METAR 2021/07/28 03:55 UTC NOAA

KTNU 280355Z AUTO 18008KT 7SM CLR 24/24 A2999 RMK A01


Station Type Date Time Source
KTNU Decoded METAR 2021/07/28 03:55 UTC NOAA

Newton Municipal, IA, United States (KTNU) 41-41N 093-01W
Jul 27, 2021 - 11:55 PM EDT / 2021.07.28 0355 UTC
Wind: from the S (180 degrees) at 9 MPH (8 KT):0
Visibility: 7 mile(s):0
Sky conditions: clear
Temperature: 75 F (24 C)
Dew Point: 75 F (24 C)
Relative Humidity: 100%
Pressure (altimeter): 29.99 in. Hg (1015 hPa)
ob: KTNU 280355Z AUTO 18008KT 7SM CLR 24/24 A2999 RMK A01
cycle: 4

Station Type Date Time Source
KTNU TAF UTC NOAA

Error!

Example: see airport list